Time;durP1;ratioP1;P1;durP2;ratioP2;P2;SDS_P1;SDS_P2;PMS_P1;PMS_P2;Temp;Humidity;BMP_temperature;BMP_pressure;BME280_temperature;BME280_humidity;BME280_pressure;Samples;Min_cycle;Max_cycle;Signal;HPM_P1;HPM_P2
2023/05/30 00:00:47;;;;;;;15.38;4.38;;;11.80;99.90;;;;;;5022605;28;20056;-57
2023/05/30 00:03:12;;;;;;;14.80;4.70;;;11.80;99.90;;;;;;5022187;28;20040;-54
2023/05/30 00:05:38;;;;;;;16.50;4.47;;;11.80;99.90;;;;;;5004541;28;20049;-55
2023/05/30 00:08:04;;;;;;;11.50;4.60;;;11.70;99.90;;;;;;5022538;28;20639;-55
2023/05/30 00:10:29;;;;;;;12.52;4.38;;;11.70;99.90;;;;;;5021432;28;20044;-55
2023/05/30 00:12:55;;;;;;;12.73;3.90;;;11.70;99.90;;;;;;5021574;28;20053;-54
2023/05/30 00:15:21;;;;;;;14.45;3.92;;;11.80;99.90;;;;;;5022024;28;20049;-55
2023/05/30 00:17:47;;;;;;;13.13;3.97;;;11.70;99.90;;;;;;5022091;28;20381;-55
2023/05/30 00:20:13;;;;;;;14.20;4.20;;;11.70;99.90;;;;;;5021364;28;20366;-54
2023/05/30 00:22:41;;;;;;;13.52;4.18;;;11.80;99.90;;;;;;5022126;28;20350;-55
2023/05/30 00:25:09;;;;;;;15.35;4.50;;;11.70;99.90;;;;;;5004459;28;20053;-54
2023/05/30 00:27:35;;;;;;;14.52;4.13;;;11.70;99.90;;;;;;5020527;28;20103;-54
2023/05/30 00:30:01;;;;;;;10.23;3.22;;;11.70;99.90;;;;;;5021146;28;20057;-55
2023/05/30 00:32:26;;;;;;;16.02;4.35;;;11.70;99.90;;;;;;5003798;28;20077;-54
2023/05/30 00:34:52;;;;;;;12.32;4.18;;;11.70;99.90;;;;;;5021295;28;20500;-54
2023/05/30 00:37:17;;;;;;;14.20;4.35;;;11.70;99.90;;;;;;5022120;28;20134;-55
2023/05/30 00:39:43;;;;;;;11.13;4.10;;;11.70;99.90;;;;;;5021823;28;20104;-55
2023/05/30 00:42:09;;;;;;;15.57;4.70;;;11.70;99.90;;;;;;5020800;28;20294;-54
2023/05/30 00:44:34;;;;;;;13.73;4.38;;;11.70;99.90;;;;;;5021079;28;20037;-55
2023/05/30 00:47:00;;;;;;;11.88;4.28;;;11.70;99.90;;;;;;5021893;28;20410;-54
2023/05/30 00:49:26;;;;;;;11.18;4.43;;;11.70;99.90;;;;;;5022029;28;20515;-54
2023/05/30 00:51:53;;;;;;;17.83;4.57;;;11.60;99.90;;;;;;5021426;28;20129;-54
2023/05/30 00:54:19;;;;;;;14.82;4.55;;;11.80;99.90;;;;;;5021884;28;20274;-55
2023/05/30 00:56:45;;;;;;;15.27;4.30;;;11.60;99.90;;;;;;5020955;28;20045;-54
2023/05/30 00:59:11;;;;;;;11.75;4.28;;;11.60;99.90;;;;;;5021264;28;20041;-57
2023/05/30 01:01:37;;;;;;;14.85;4.63;;;11.60;99.90;;;;;;5021951;28;20037;-57
2023/05/30 01:04:03;;;;;;;11.50;4.22;;;11.70;99.90;;;;;;5021773;28;20042;-57
2023/05/30 01:06:29;;;;;;;12.20;4.32;;;11.60;99.90;;;;;;5021381;28;20046;-56
2023/05/30 01:08:59;;;;;;;17.02;4.45;;;11.60;99.90;;;;;;5020985;28;20060;-55
2023/05/30 01:11:46;;;;;;;14.07;4.90;;;11.60;99.90;;;;;;5020974;28;20419;-54
2023/05/30 01:14:42;;;;;;;15.00;4.50;;;11.60;99.90;;;;;;5020757;28;20115;-54
2023/05/30 01:17:36;;;;;;;10.80;4.32;;;11.60;99.90;;;;;;5021125;28;20255;-54
2023/05/30 01:20:13;;;;;;;13.90;4.70;;;11.50;99.90;;;;;;4968318;28;20054;-54
2023/05/30 01:22:49;;;;;;;13.23;4.63;;;11.50;99.90;;;;;;5020763;28;20045;-53
2023/05/30 01:25:40;;;;;;;14.18;4.30;;;11.50;99.90;;;;;;5020920;28;20041;-54
2023/05/30 01:28:12;;;;;;;13.25;4.57;;;11.60;99.90;;;;;;5020486;28;20117;-57
2023/05/30 01:30:45;;;;;;;13.65;4.90;;;12.70;99.90;;;;;;5021237;28;20416;-55
2023/05/30 01:33:12;;;;;;;10.45;3.75;;;11.60;99.90;;;;;;5003117;28;20332;-55
2023/05/30 01:35:38;;;;;;;11.02;3.78;;;11.60;99.90;;;;;;5020703;28;20030;-54
2023/05/30 01:38:03;;;;;;;15.68;4.82;;;11.50;99.90;;;;;;5020967;28;20053;-55
2023/05/30 01:40:29;;;;;;;13.75;3.85;;;11.50;99.90;;;;;;5020211;28;20041;-54
2023/05/30 01:43:29;;;;;;;9.48;3.55;;;11.50;99.90;;;;;;5022129;28;20515;-57
2023/05/30 01:46:28;;;;;;;12.80;4.15;;;11.50;99.90;;;;;;4993193;28;20057;-54
2023/05/30 01:48:58;;;;;;;14.98;4.15;;;11.50;99.90;;;;;;5024084;28;20053;-54
2023/05/30 01:51:46;;;;;;;14.35;4.47;;;11.50;99.90;;;;;;5006714;28;20049;-54
2023/05/30 01:54:15;;;;;;;13.27;4.07;;;11.50;99.90;;;;;;5024656;28;20374;-55
2023/05/30 01:56:44;;;;;;;14.50;4.10;;;11.60;99.90;;;;;;5023385;28;20083;-57
2023/05/30 01:59:11;;;;;;;13.05;4.10;;;11.50;99.90;;;;;;5024271;28;20457;-54
2023/05/30 02:01:38;;;;;;;14.00;4.30;;;11.50;99.90;;;;;;5024114;28;20384;-57
2023/05/30 02:04:04;;;;;;;19.95;4.32;;;11.50;99.90;;;;;;5024135;28;20042;-54
2023/05/30 02:06:29;;;;;;;14.23;4.03;;;11.50;99.90;;;;;;5023843;28;20124;-56
2023/05/30 02:08:55;;;;;;;13.07;3.90;;;11.60;99.90;;;;;;5024509;28;20381;-55
2023/05/30 02:11:21;;;;;;;16.50;4.47;;;11.60;99.90;;;;;;5023360;28;20076;-56
2023/05/30 02:13:46;;;;;;;11.65;4.45;;;11.80;99.90;;;;;;5022915;28;20049;-55
2023/05/30 02:16:13;;;;;;;11.48;4.25;;;11.50;99.90;;;;;;5023941;28;20041;-55
2023/05/30 02:18:40;;;;;;;14.50;4.65;;;11.40;99.90;;;;;;5022928;28;20516;-55
2023/05/30 02:21:06;;;;;;;16.05;4.55;;;11.50;99.90;;;;;;5023990;28;20060;-55
2023/05/30 02:23:32;;;;;;;15.73;4.30;;;11.50;99.90;;;;;;5023369;28;20041;-55
2023/05/30 02:25:58;;;;;;;12.68;4.72;;;11.70;99.90;;;;;;5023300;28;20037;-55
2023/05/30 02:28:23;;;;;;;12.82;4.90;;;11.40;99.90;;;;;;5023233;28;20041;-54
2023/05/30 02:30:49;;;;;;;15.27;4.47;;;11.50;99.90;;;;;;5023257;28;20377;-54
2023/05/30 02:33:14;;;;;;;11.00;4.03;;;11.40;99.90;;;;;;5024063;28;20037;-55
2023/05/30 02:35:40;;;;;;;13.65;4.50;;;11.40;99.90;;;;;;5022805;28;20053;-54
2023/05/30 02:38:05;;;;;;;13.10;4.88;;;11.50;99.90;;;;;;5023661;28;20046;-56
2023/05/30 02:40:31;;;;;;;14.35;4.50;;;11.40;99.90;;;;;;5023518;28;20041;-54
2023/05/30 02:42:57;;;;;;;18.17;4.30;;;11.40;99.90;;;;;;5022221;28;20091;-54
2023/05/30 02:45:22;;;;;;;8.95;4.03;;;11.40;99.90;;;;;;5023475;28;20463;-55
2023/05/30 02:47:48;;;;;;;18.42;5.00;;;11.40;99.90;;;;;;5023239;28;20052;-54
2023/05/30 02:50:13;;;;;;;13.05;4.50;;;11.30;99.90;;;;;;5023129;28;20044;-55
2023/05/30 02:52:39;;;;;;;11.57;4.22;;;11.40;99.90;;;;;;5022910;28;20132;-55
2023/05/30 02:55:05;;;;;;;17.58;4.88;;;11.40;99.90;;;;;;5022011;28;20044;-57
2023/05/30 02:57:32;;;;;;;19.60;4.93;;;11.30;99.90;;;;;;5022495;28;20103;-57
2023/05/30 02:59:57;;;;;;;15.07;4.30;;;11.30;99.90;;;;;;5022665;28;20571;-57
2023/05/30 03:02:23;;;;;;;17.67;4.93;;;11.30;99.90;;;;;;5022957;28;20117;-56
2023/05/30 03:04:48;;;;;;;16.35;4.63;;;11.30;99.90;;;;;;5023157;28;20052;-56
2023/05/30 03:07:17;;;;;;;16.73;5.18;;;11.30;99.90;;;;;;5022920;28;20064;-55
2023/05/30 03:09:43;;;;;;;13.18;4.50;;;11.30;99.90;;;;;;5022523;28;20041;-55
2023/05/30 03:12:09;;;;;;;15.55;4.50;;;11.30;99.90;;;;;;5003361;28;20061;-54
2023/05/30 03:14:35;;;;;;;16.95;5.03;;;11.40;99.90;;;;;;5022521;28;20068;-55
2023/05/30 03:17:00;;;;;;;14.38;4.65;;;11.70;99.90;;;;;;5022276;28;20125;-54
2023/05/30 03:19:26;;;;;;;13.45;4.25;;;11.40;99.90;;;;;;5022522;28;20048;-55
2023/05/30 03:21:52;;;;;;;16.00;4.55;;;11.40;99.90;;;;;;5022430;28;20042;-55
2023/05/30 03:24:17;;;;;;;13.50;4.32;;;11.40;99.90;;;;;;5022181;28;20041;-55
2023/05/30 03:26:43;;;;;;;12.35;4.50;;;11.40;99.90;;;;;;5021667;28;20060;-55
2023/05/30 03:29:09;;;;;;;17.05;4.85;;;11.40;99.90;;;;;;5004585;28;20136;-55
2023/05/30 03:31:35;;;;;;;14.30;4.65;;;11.40;99.90;;;;;;5022356;28;20058;-54
2023/05/30 03:34:01;;;;;;;19.10;5.38;;;11.40;99.90;;;;;;5022176;28;20048;-56
2023/05/30 03:36:27;;;;;;;17.55;4.70;;;11.50;99.90;;;;;;5022654;28;20128;-57
2023/05/30 03:38:54;;;;;;;16.48;4.63;;;11.60;99.90;;;;;;5022261;28;20041;-55
2023/05/30 03:41:21;;;;;;;13.10;4.18;;;11.50;99.90;;;;;;5021249;28;20443;-55
2023/05/30 03:43:46;;;;;;;15.68;4.43;;;11.50;99.90;;;;;;5022293;28;20081;-55
2023/05/30 03:46:15;;;;;;;15.32;4.40;;;11.50;99.90;;;;;;5022406;28;20474;-55
2023/05/30 03:48:42;;;;;;;18.73;4.90;;;12.40;99.90;;;;;;5021673;28;20065;-55
2023/05/30 03:51:07;;;;;;;17.85;4.80;;;11.50;99.90;;;;;;5021895;28;20544;-55
2023/05/30 03:53:33;;;;;;;19.20;4.70;;;11.50;99.90;;;;;;5004267;28;20203;-54
2023/05/30 03:55:59;;;;;;;13.40;4.40;;;11.50;99.90;;;;;;5021871;28;20037;-55
2023/05/30 03:58:24;;;;;;;18.80;4.95;;;11.50;99.90;;;;;;5021128;28;20038;-55
2023/05/30 04:00:50;;;;;;;13.18;4.63;;;11.50;99.90;;;;;;5022325;28;20052;-55
2023/05/30 04:03:19;;;;;;;18.73;4.57;;;11.60;99.90;;;;;;5022093;28;20515;-55
2023/05/30 04:05:47;;;;;;;14.57;4.22;;;11.60;99.90;;;;;;5021186;28;20310;-55
2023/05/30 04:08:12;;;;;;;15.48;4.80;;;11.70;99.90;;;;;;5021776;28;20411;-55
2023/05/30 04:10:38;;;;;;;12.65;4.20;;;11.70;99.90;;;;;;5021403;28;20246;-54
2023/05/30 04:13:04;;;;;;;14.77;4.25;;;11.70;99.90;;;;;;5020587;28;20083;-55
2023/05/30 04:15:29;;;;;;;13.48;4.50;;;11.70;99.90;;;;;;5022067;28;20124;-54
2023/05/30 04:17:57;;;;;;;11.05;3.47;;;11.80;99.90;;;;;;5004458;28;20041;-55
2023/05/30 04:20:23;;;;;;;17.88;3.90;;;11.60;99.90;;;;;;5021395;28;20057;-55
2023/05/30 04:22:50;;;;;;;18.27;5.07;;;11.60;99.90;;;;;;5021837;28;20142;-56
2023/05/30 04:25:17;;;;;;;15.18;3.80;;;11.50;99.90;;;;;;5021554;28;20546;-54
2023/05/30 04:27:43;;;;;;;11.52;3.90;;;12.40;99.90;;;;;;5020348;28;20386;-56
2023/05/30 04:30:10;;;;;;;14.40;4.13;;;11.90;99.90;;;;;;5021613;28;20546;-55
2023/05/30 04:32:36;;;;;;;14.05;4.03;;;11.60;99.90;;;;;;5021303;28;20073;-55
2023/05/30 04:35:03;;;;;;;17.83;4.60;;;11.80;99.90;;;;;;5021861;28;20453;-55
2023/05/30 04:37:29;;;;;;;10.10;3.85;;;11.70;99.90;;;;;;5020697;28;20277;-54
2023/05/30 04:39:58;;;;;;;14.85;4.50;;;11.70;99.90;;;;;;5021027;28;20076;-56
2023/05/30 04:42:26;;;;;;;18.35;4.25;;;11.70;99.90;;;;;;5020581;28;20053;-54
2023/05/30 04:44:55;;;;;;;16.55;4.15;;;11.70;99.90;;;;;;5020863;28;20076;-55
2023/05/30 04:47:24;;;;;;;19.30;4.18;;;11.70;99.90;;;;;;5021110;28;20455;-55
2023/05/30 04:49:53;;;;;;;12.82;4.10;;;11.70;99.90;;;;;;5021450;28;20480;-55
2023/05/30 04:52:19;;;;;;;14.40;4.18;;;11.70;99.90;;;;;;5021208;28;20393;-55
2023/05/30 04:54:45;;;;;;;15.10;4.50;;;11.70;99.90;;;;;;5021340;28;20108;-55
2023/05/30 04:57:12;;;;;;;16.52;4.18;;;11.70;99.90;;;;;;5020264;28;20045;-56
2023/05/30 04:59:41;;;;;;;18.08;4.50;;;11.70;99.90;;;;;;5020941;28;20045;-57
2023/05/30 05:02:08;;;;;;;13.23;4.57;;;11.70;99.90;;;;;;5021081;28;20617;-58
2023/05/30 05:04:33;;;;;;;17.50;5.03;;;11.70;99.90;;;;;;5021533;28;20048;-56
2023/05/30 05:06:59;;;;;;;14.10;4.18;;;11.80;99.90;;;;;;5020120;28;20729;-56
2023/05/30 05:09:25;;;;;;;16.23;3.88;;;11.70;99.90;;;;;;5003674;28;20853;-56
2023/05/30 05:11:51;;;;;;;15.38;4.35;;;11.70;99.90;;;;;;5020152;28;20112;-57
2023/05/30 05:14:17;;;;;;;14.23;4.20;;;11.70;99.90;;;;;;5021046;28;20076;-56
2023/05/30 05:16:42;;;;;;;14.45;4.18;;;11.70;99.90;;;;;;5021671;28;20060;-56
2023/05/30 05:19:08;;;;;;;9.90;4.18;;;11.80;99.90;;;;;;5024546;28;20041;-56
2023/05/30 05:21:33;;;;;;;9.30;4.03;;;11.80;99.90;;;;;;5025171;28;20297;-57
2023/05/30 05:23:59;;;;;;;14.75;4.22;;;11.80;99.90;;;;;;5024852;28;20459;-55
2023/05/30 05:26:25;;;;;;;11.38;3.80;;;11.80;99.90;;;;;;5023858;28;20041;-56
2023/05/30 05:28:51;;;;;;;13.02;4.05;;;11.80;99.90;;;;;;5024898;28;20439;-58
2023/05/30 05:31:16;;;;;;;9.98;3.78;;;11.80;99.90;;;;;;5024256;28;20408;-55
2023/05/30 05:33:42;;;;;;;12.43;3.83;;;11.80;99.90;;;;;;5024981;28;20041;-54
2023/05/30 05:36:08;;;;;;;12.02;3.50;;;11.80;99.90;;;;;;5024803;28;20048;-55
2023/05/30 05:38:33;;;;;;;10.32;3.65;;;11.90;99.90;;;;;;5024940;28;20539;-55
2023/05/30 05:40:59;;;;;;;13.25;3.30;;;12.00;99.90;;;;;;5023605;28;20484;-55
2023/05/30 05:43:25;;;;;;;12.38;3.80;;;11.90;99.90;;;;;;5024502;28;20037;-54
2023/05/30 05:45:53;;;;;;;16.58;4.13;;;12.00;99.90;;;;;;5007003;28;20133;-54
2023/05/30 05:48:19;;;;;;;13.75;3.50;;;12.00;99.90;;;;;;5005964;28;20045;-55
2023/05/30 05:50:44;;;;;;;9.75;3.17;;;12.00;99.90;;;;;;5024380;28;20041;-54
2023/05/30 05:53:10;;;;;;;11.75;3.47;;;12.00;99.90;;;;;;5024670;28;20052;-55
2023/05/30 05:55:36;;;;;;;9.45;3.15;;;12.00;99.90;;;;;;5024055;28;20043;-55
2023/05/30 05:58:01;;;;;;;7.72;3.10;;;12.00;99.90;;;;;;5023978;28;21420;-57
2023/05/30 06:00:27;;;;;;;12.43;3.55;;;12.00;99.90;;;;;;5006513;28;20049;-55
2023/05/30 06:02:53;;;;;;;8.48;3.15;;;12.10;99.90;;;;;;5023883;28;20041;-55
2023/05/30 06:05:19;;;;;;;8.85;3.13;;;12.10;99.90;;;;;;5023718;28;20085;-55
2023/05/30 06:07:44;;;;;;;7.03;2.72;;;12.10;99.90;;;;;;5024059;28;20387;-54
2023/05/30 06:10:10;;;;;;;11.73;3.30;;;12.10;99.90;;;;;;5024265;28;20049;-56
2023/05/30 06:12:36;;;;;;;9.82;3.17;;;12.00;99.90;;;;;;5022988;28;20369;-54
2023/05/30 06:15:01;;;;;;;11.30;3.08;;;12.00;99.90;;;;;;5023842;28;20041;-55
2023/05/30 06:17:28;;;;;;;8.18;3.15;;;12.10;99.90;;;;;;5024497;28;20519;-55
2023/05/30 06:19:54;;;;;;;7.68;3.05;;;12.10;99.90;;;;;;5023438;28;20512;-57
2023/05/30 06:22:20;;;;;;;9.93;2.90;;;12.00;99.90;;;;;;4989357;28;20092;-54
2023/05/30 06:24:46;;;;;;;8.52;2.25;;;12.10;99.90;;;;;;5023901;28;20034;-54
2023/05/30 06:27:12;;;;;;;10.65;3.05;;;12.10;99.90;;;;;;5022900;28;20075;-58
2023/05/30 06:29:38;;;;;;;9.30;2.78;;;12.10;99.90;;;;;;5022403;28;20033;-55
2023/05/30 06:32:04;;;;;;;9.93;2.85;;;12.20;99.90;;;;;;5005651;28;20045;-54
2023/05/30 06:34:29;;;;;;;8.85;2.85;;;12.20;99.90;;;;;;4989663;28;20480;-55
2023/05/30 06:36:55;;;;;;;8.05;3.10;;;12.30;99.90;;;;;;5023282;28;20049;-54
2023/05/30 06:39:21;;;;;;;7.20;2.70;;;12.40;99.90;;;;;;5023347;28;20500;-55
2023/05/30 06:41:47;;;;;;;8.63;2.95;;;12.40;99.90;;;;;;5023094;28;20056;-57
2023/05/30 06:44:13;;;;;;;7.00;2.80;;;12.30;99.90;;;;;;5023109;28;20049;-53
2023/05/30 06:46:38;;;;;;;6.50;2.75;;;12.30;99.90;;;;;;5023582;28;20067;-55
2023/05/30 06:49:04;;;;;;;9.38;2.83;;;12.60;99.90;;;;;;5006012;28;20045;-55
2023/05/30 06:51:30;;;;;;;7.57;3.33;;;12.30;99.90;;;;;;5023066;28;20132;-55
2023/05/30 06:53:57;;;;;;;12.90;3.60;;;12.30;99.90;;;;;;5023181;28;20041;-55
2023/05/30 06:56:22;;;;;;;11.75;2.72;;;12.40;99.90;;;;;;5022294;28;20068;-54
2023/05/30 06:58:48;;;;;;;10.15;2.83;;;12.50;99.90;;;;;;5023316;28;20037;-54
2023/05/30 07:01:14;;;;;;;10.93;3.20;;;12.50;99.90;;;;;;5022949;28;20048;-57
2023/05/30 07:03:39;;;;;;;7.90;2.50;;;12.50;99.90;;;;;;5022712;28;20053;-57
2023/05/30 07:06:06;;;;;;;8.88;2.28;;;12.60;99.90;;;;;;5023630;28;20488;-56
2023/05/30 07:08:32;;;;;;;7.15;2.85;;;12.60;99.90;;;;;;5022792;28;20432;-56
2023/05/30 07:10:57;;;;;;;7.78;2.80;;;12.60;99.90;;;;;;5003862;28;20067;-57
2023/05/30 07:13:23;;;;;;;8.10;2.25;;;12.60;99.90;;;;;;5022942;28;20065;-57
2023/05/30 07:15:48;;;;;;;7.80;2.30;;;12.50;99.90;;;;;;5022406;28;20393;-56
2023/05/30 07:18:14;;;;;;;8.43;2.50;;;12.40;99.90;;;;;;5022299;28;20120;-56
2023/05/30 07:20:40;;;;;;;7.47;2.40;;;12.40;99.90;;;;;;5022912;28;20044;-56
2023/05/30 07:23:05;;;;;;;6.18;2.80;;;12.40;99.90;;;;;;5022491;28;20125;-56
2023/05/30 07:25:31;;;;;;;7.78;2.88;;;12.40;99.90;;;;;;5022682;28;20041;-54
2023/05/30 07:27:57;;;;;;;6.95;2.45;;;12.40;99.90;;;;;;5003646;28;20889;-56
2023/05/30 07:30:22;;;;;;;7.93;2.55;;;12.40;99.90;;;;;;5022405;28;20124;-57
2023/05/30 07:32:49;;;;;;;5.82;3.25;;;12.50;99.90;;;;;;5022432;28;20038;-54
2023/05/30 07:35:15;;;;;;;7.90;4.80;;;12.50;99.90;;;;;;5021946;28;20444;-58
2023/05/30 07:37:40;;;;;;;7.18;3.47;;;12.50;99.90;;;;;;5023127;28;20060;-57
2023/05/30 07:40:07;;;;;;;7.75;2.90;;;13.00;99.90;;;;;;5003905;28;20396;-56
2023/05/30 07:42:38;;;;;;;7.00;3.25;;;12.50;99.90;;;;;;5021213;28;20045;-57
2023/05/30 07:45:05;;;;;;;8.50;4.47;;;13.40;99.90;;;;;;5021948;28;20041;-56
2023/05/30 07:47:30;;;;;;;8.57;2.83;;;12.50;99.90;;;;;;5022274;28;20037;-56
2023/05/30 07:49:56;;;;;;;9.50;3.20;;;12.50;99.90;;;;;;5003705;28;20369;-57
2023/05/30 07:52:22;;;;;;;9.95;2.85;;;12.40;99.90;;;;;;5021997;28;20053;-57
2023/05/30 07:54:48;;;;;;;7.38;2.67;;;12.50;99.90;;;;;;5004181;28;20052;-56
2023/05/30 07:57:14;;;;;;;6.88;2.70;;;12.70;99.90;;;;;;5021369;28;20041;-57
2023/05/30 07:59:43;;;;;;;7.22;1.90;;;12.70;99.90;;;;;;5021653;28;20085;-56
2023/05/30 08:02:08;;;;;;;5.32;1.50;;;12.90;99.90;;;;;;5021808;28;20037;-56
2023/05/30 08:04:34;;;;;;;4.97;1.70;;;12.90;99.90;;;;;;5022231;28;20115;-56
2023/05/30 08:07:02;;;;;;;5.30;1.10;;;13.00;99.90;;;;;;5021262;28;20045;-56
2023/05/30 08:09:27;;;;;;;4.30;1.30;;;13.00;99.90;;;;;;5022162;28;20388;-56
2023/05/30 08:11:53;;;;;;;3.88;1.90;;;13.00;99.90;;;;;;5020749;28;20057;-53
2023/05/30 08:14:18;;;;;;;3.75;1.92;;;14.40;99.90;;;;;;5021203;28;20045;-57
2023/05/30 08:16:44;;;;;;;3.78;1.25;;;13.20;99.90;;;;;;5022266;28;20468;-55
2023/05/30 08:19:11;;;;;;;3.78;1.55;;;13.40;99.90;;;;;;5021316;28;20073;-56
2023/05/30 08:21:36;;;;;;;4.72;1.67;;;13.50;99.90;;;;;;5021591;28;20179;-56
2023/05/30 08:24:02;;;;;;;3.88;1.20;;;13.70;99.90;;;;;;5021219;28;20444;-55
2023/05/30 08:26:31;;;;;;;2.47;1.20;;;13.80;99.90;;;;;;5003064;28;20528;-56
2023/05/30 08:28:57;;;;;;;1.85;0.70;;;13.90;99.90;;;;;;5021259;28;20463;-56
2023/05/30 08:31:23;;;;;;;2.28;0.85;;;13.80;99.90;;;;;;5021465;28;20045;-56
2023/05/30 08:33:49;;;;;;;1.55;0.90;;;13.70;99.90;;;;;;5021872;28;20034;-55
2023/05/30 08:36:15;;;;;;;4.82;1.52;;;13.90;99.90;;;;;;5021959;28;20049;-56
2023/05/30 08:38:41;;;;;;;4.22;1.52;;;13.80;99.90;;;;;;5021255;28;20045;-57
2023/05/30 08:41:06;;;;;;;2.58;1.40;;;13.80;99.90;;;;;;5020432;28;20111;-56
2023/05/30 08:43:32;;;;;;;2.85;1.23;;;14.10;99.90;;;;;;5003765;28;20195;-57
2023/05/30 08:45:58;;;;;;;3.92;1.40;;;14.40;99.90;;;;;;5021561;28;20042;-56
2023/05/30 08:48:25;;;;;;;2.20;1.20;;;14.60;99.90;;;;;;5020487;28;20053;-56
2023/05/30 08:50:52;;;;;;;2.10;1.08;;;14.60;99.90;;;;;;5003376;28;20050;-56
2023/05/30 08:53:25;;;;;;;2.40;1.10;;;14.40;99.90;;;;;;5024542;28;20115;-56
2023/05/30 08:56:13;;;;;;;2.30;1.10;;;14.30;99.90;;;;;;5006803;28;20056;-56
2023/05/30 08:58:46;;;;;;;3.08;1.33;;;14.30;99.90;;;;;;5025285;28;20042;-56
2023/05/30 09:01:12;;;;;;;2.60;1.40;;;14.20;99.90;;;;;;5025455;28;20092;-56
2023/05/30 09:03:44;;;;;;;2.70;1.42;;;14.20;99.90;;;;;;5024609;28;20400;-55
2023/05/30 09:06:12;;;;;;;5.22;1.23;;;13.90;99.90;;;;;;5024623;28;20053;-56
2023/05/30 09:08:41;;;;;;;2.42;1.05;;;13.90;99.90;;;;;;5025284;28;20037;-56
2023/05/30 09:11:07;;;;;;;2.65;1.10;;;13.90;99.90;;;;;;5023906;28;20060;-54
2023/05/30 09:13:34;;;;;;;2.50;1.40;;;13.80;99.90;;;;;;5025035;28;20053;-55
2023/05/30 09:16:00;;;;;;;3.20;1.23;;;13.80;99.90;;;;;;5024846;28;20454;-54
2023/05/30 09:18:34;;;;;;;3.75;1.35;;;14.20;99.90;;;;;;5024966;28;20053;-56
2023/05/30 09:21:01;;;;;;;1.55;1.00;;;13.70;99.90;;;;;;5024303;28;20695;-56
2023/05/30 09:23:27;;;;;;;3.42;1.20;;;13.60;99.90;;;;;;5025171;28;20049;-56
2023/05/30 09:25:52;;;;;;;2.03;1.00;;;13.50;99.90;;;;;;5023389;28;20428;-56
2023/05/30 09:28:26;;;;;;;5.57;1.20;;;13.50;99.90;;;;;;5025250;28;20164;-56
2023/05/30 09:31:00;;;;;;;1.83;1.00;;;13.50;99.90;;;;;;5024737;28;20041;-56
2023/05/30 09:33:43;;;;;;;1.58;0.93;;;13.50;99.90;;;;;;5024547;28;20045;-56
2023/05/30 09:36:08;;;;;;;4.85;1.08;;;13.50;99.90;;;;;;5024770;28;20400;-56
2023/05/30 09:38:34;;;;;;;1.73;0.90;;;13.70;99.90;;;;;;5024364;28;20107;-57
2023/05/30 09:41:03;;;;;;;2.42;1.23;;;13.80;99.90;;;;;;5024116;28;20391;-57
2023/05/30 09:43:34;;;;;;;3.70;1.38;;;13.90;99.90;;;;;;5024000;28;20107;-56
2023/05/30 09:46:06;;;;;;;2.35;1.27;;;13.90;99.90;;;;;;5024488;28;20037;-57
2023/05/30 09:48:32;;;;;;;6.50;2.17;;;13.90;99.90;;;;;;5024157;28;20033;-57
2023/05/30 09:51:02;;;;;;;3.15;1.13;;;13.90;99.90;;;;;;5024524;28;20305;-56
2023/05/30 09:53:33;;;;;;;5.18;1.50;;;13.80;99.90;;;;;;5024685;28;20045;-57
2023/05/30 09:56:02;;;;;;;2.50;1.30;;;13.80;99.90;;;;;;5023155;28;20033;-56
2023/05/30 09:58:28;;;;;;;3.30;1.30;;;13.80;99.90;;;;;;5005944;28;20361;-55
2023/05/30 10:00:56;;;;;;;2.83;1.45;;;14.20;99.90;;;;;;5024395;28;20096;-56
2023/05/30 10:03:41;;;;;;;2.50;1.60;;;13.80;99.90;;;;;;5005745;28;20352;-55
2023/05/30 10:06:13;;;;;;;5.55;1.95;;;13.80;99.90;;;;;;5024028;28;20045;-56
2023/05/30 10:08:42;;;;;;;2.38;1.45;;;13.90;99.90;;;;;;5005741;28;20128;-56
2023/05/30 10:11:09;;;;;;;2.75;1.80;;;13.90;99.90;;;;;;5004847;28;20042;-56
2023/05/30 10:13:34;;;;;;;3.17;1.70;;;15.10;99.90;;;;;;5024140;28;20055;-56
2023/05/30 10:16:02;;;;;;;2.03;1.30;;;14.00;99.90;;;;;;5023884;28;20572;-56
2023/05/30 10:18:31;;;;;;;3.25;1.70;;;14.10;99.90;;;;;;5024062;28;20669;-56
2023/05/30 10:20:59;;;;;;;2.47;1.20;;;14.20;99.90;;;;;;5005919;28;20041;-56
2023/05/30 10:23:25;;;;;;;2.75;1.27;;;14.20;99.90;;;;;;5023765;28;20077;-57
2023/05/30 10:25:54;;;;;;;2.10;1.40;;;14.30;99.90;;;;;;5022589;28;20047;-55
2023/05/30 10:28:28;;;;;;;3.05;1.20;;;14.40;99.90;;;;;;5024443;28;20052;-56
2023/05/30 10:30:56;;;;;;;2.78;1.55;;;14.50;99.90;;;;;;5023375;28;20503;-55
2023/05/30 10:33:25;;;;;;;4.10;1.73;;;14.60;99.90;;;;;;5023893;28;20065;-56
2023/05/30 10:35:51;;;;;;;4.22;1.55;;;14.60;99.90;;;;;;5023954;28;20087;-56
2023/05/30 10:38:18;;;;;;;2.45;1.60;;;14.60;99.90;;;;;;5022478;28;20048;-55
2023/05/30 10:41:03;;;;;;;3.10;1.60;;;14.80;99.90;;;;;;5023002;28;20037;-56
2023/05/30 10:44:13;;;;;;;3.40;1.40;;;14.60;99.90;;;;;;5005426;28;20049;-56
2023/05/30 10:47:11;;;;;;;2.95;1.70;;;14.60;99.90;;;;;;5014116;28;20388;-54
2023/05/30 10:49:38;;;;;;;3.90;1.75;;;14.70;99.90;;;;;;4962305;28;20251;-54
2023/05/30 10:52:05;;;;;;;2.65;1.48;;;14.80;99.90;;;;;;5022486;28;20170;-57
2023/05/30 10:54:33;;;;;;;3.42;1.60;;;14.80;99.90;;;;;;5005759;28;20042;-55
2023/05/30 10:57:00;;;;;;;4.95;1.60;;;14.90;99.90;;;;;;5021910;28;20494;-55
2023/05/30 10:59:26;;;;;;;4.60;1.50;;;14.90;99.90;;;;;;5023375;28;20038;-57
2023/05/30 11:02:02;;;;;;;4.63;1.38;;;14.90;99.90;;;;;;5023211;28;20490;-55
2023/05/30 11:04:38;;;;;;;3.92;1.10;;;14.80;99.90;;;;;;5022887;28;20224;-56
2023/05/30 11:07:05;;;;;;;1.73;1.20;;;14.80;99.90;;;;;;5022288;28;20041;-56
2023/05/30 11:09:32;;;;;;;3.53;1.20;;;14.90;99.90;;;;;;5022867;28;20042;-56
2023/05/30 11:11:59;;;;;;;1.80;1.10;;;15.00;99.90;;;;;;5021804;28;20338;-56
2023/05/30 11:14:30;;;;;;;4.07;1.30;;;15.00;99.90;;;;;;5004501;28;20049;-55
2023/05/30 11:17:05;;;;;;;3.83;1.10;;;15.20;99.90;;;;;;5023237;28;20049;-56
2023/05/30 11:19:42;;;;;;;3.20;1.40;;;15.10;99.90;;;;;;5022722;28;20034;-56
2023/05/30 11:22:15;;;;;;;4.88;1.60;;;15.20;99.90;;;;;;5023356;28;20037;-55
2023/05/30 11:24:41;;;;;;;4.30;1.30;;;15.30;99.90;;;;;;5022546;28;20050;-56
2023/05/30 11:27:14;;;;;;;4.57;1.60;;;15.30;99.90;;;;;;5021553;28;20124;-55
2023/05/30 11:29:48;;;;;;;2.70;1.15;;;15.50;99.90;;;;;;5022933;28;20483;-56
2023/05/30 11:32:22;;;;;;;2.40;1.10;;;15.40;99.90;;;;;;5022808;28;20037;-56
2023/05/30 11:34:57;;;;;;;2.13;1.00;;;15.40;99.90;;;;;;5022415;28;20049;-54
2023/05/30 11:37:23;;;;;;;1.00;0.70;;;15.50;99.90;;;;;;5005202;28;20412;-55
2023/05/30 11:39:55;;;;;;;3.10;1.20;;;15.50;99.90;;;;;;5004215;28;20044;-54
2023/05/30 11:42:21;;;;;;;1.73;1.13;;;15.40;99.90;;;;;;5022179;28;20087;-54
2023/05/30 11:44:47;;;;;;;2.38;1.15;;;15.60;99.90;;;;;;5022188;28;20041;-54
2023/05/30 11:47:14;;;;;;;1.55;1.08;;;15.30;99.90;;;;;;5021814;28;20447;-54
2023/05/30 11:49:41;;;;;;;2.25;1.20;;;15.40;99.90;;;;;;5022097;28;20503;-54
2023/05/30 11:52:07;;;;;;;2.50;1.00;;;15.60;99.90;;;;;;5022052;28;20076;-54
2023/05/30 11:54:33;;;;;;;8.00;1.25;;;15.40;99.90;;;;;;5021517;28;20519;-55
2023/05/30 11:56:59;;;;;;;2.50;1.20;;;15.40;99.90;;;;;;5021427;28;20493;-56
2023/05/30 11:59:26;;;;;;;1.90;1.27;;;15.50;99.90;;;;;;5022527;28;20029;-57
2023/05/30 12:01:53;;;;;;;2.78;1.33;;;15.70;99.90;;;;;;5021998;28;20127;-56
2023/05/30 12:04:23;;;;;;;2.22;1.30;;;15.70;99.90;;;;;;5021886;28;20048;-56
2023/05/30 12:06:49;;;;;;;2.20;1.30;;;15.60;99.90;;;;;;5021643;28;20103;-57
2023/05/30 12:09:15;;;;;;;2.95;1.27;;;15.70;99.90;;;;;;5022061;28;20041;-56
2023/05/30 12:11:58;;;;;;;4.75;1.33;;;15.80;99.90;;;;;;5002334;28;20060;-57
2023/05/30 12:14:50;;;;;;;2.95;1.50;;;16.10;99.90;;;;;;5021783;28;20452;-57
2023/05/30 12:17:21;;;;;;;4.80;1.50;;;16.00;99.90;;;;;;4991163;28;20057;-55
2023/05/30 12:19:59;;;;;;;2.72;1.30;;;16.00;99.90;;;;;;5021791;28;20045;-54
2023/05/30 12:22:28;;;;;;;2.55;1.33;;;16.10;99.90;;;;;;5021823;28;20038;-55
2023/05/30 12:24:54;;;;;;;4.43;1.23;;;16.20;99.90;;;;;;5020997;28;20049;-54
2023/05/30 12:27:21;;;;;;;2.70;1.20;;;16.20;99.90;;;;;;5003554;28;20034;-54
2023/05/30 12:29:47;;;;;;;1.90;1.00;;;16.20;99.90;;;;;;5021304;28;20041;-54
2023/05/30 12:32:12;;;;;;;1.67;1.08;;;16.40;99.90;;;;;;5022151;28;20056;-55
2023/05/30 12:34:42;;;;;;;2.10;1.10;;;16.20;99.90;;;;;;5021430;28;20038;-54
2023/05/30 12:37:13;;;;;;;1.38;0.93;;;16.10;99.90;;;;;;5021498;28;20523;-57
2023/05/30 12:39:51;;;;;;;1.83;1.10;;;16.10;99.90;;;;;;5021483;28;20050;-55
2023/05/30 12:42:28;;;;;;;2.65;0.80;;;16.20;99.90;;;;;;5021075;28;20041;-53
2023/05/30 12:45:01;;;;;;;1.73;0.85;;;16.20;99.90;;;;;;5021567;28;20076;-56
2023/05/30 12:47:27;;;;;;;1.38;0.88;;;16.10;99.90;;;;;;5021064;28;20053;-57